sensor_id;sensor_type;location;lat;lon;timestamp;pressure;altitude;pressure_sealevel;temperature
38114;BMP180;23926;53.222;6.354;2023-07-29T00:01:22;100553.00;;;23.50
38114;BMP180;23926;53.222;6.354;2023-07-29T00:03:47;100544.00;;;23.40
38114;BMP180;23926;53.222;6.354;2023-07-29T00:06:12;100541.00;;;23.40
38114;BMP180;23926;53.222;6.354;2023-07-29T00:08:38;100538.00;;;23.40
38114;BMP180;23926;53.222;6.354;2023-07-29T00:11:03;100540.00;;;23.30
38114;BMP180;23926;53.222;6.354;2023-07-29T00:13:29;100542.00;;;23.40
38114;BMP180;23926;53.222;6.354;2023-07-29T00:15:54;100539.00;;;23.30
38114;BMP180;23926;53.222;6.354;2023-07-29T00:18:21;100536.00;;;23.30
38114;BMP180;23926;53.222;6.354;2023-07-29T00:20:47;100541.00;;;23.20
38114;BMP180;23926;53.222;6.354;2023-07-29T00:23:12;100539.00;;;23.20
38114;BMP180;23926;53.222;6.354;2023-07-29T00:25:38;100530.00;;;23.20
38114;BMP180;23926;53.222;6.354;2023-07-29T00:28:04;100542.00;;;23.20
38114;BMP180;23926;53.222;6.354;2023-07-29T00:30:29;100531.00;;;23.20
38114;BMP180;23926;53.222;6.354;2023-07-29T00:32:54;100530.00;;;23.30
38114;BMP180;23926;53.222;6.354;2023-07-29T00:35:20;100534.00;;;23.30
38114;BMP180;23926;53.222;6.354;2023-07-29T00:37:45;100528.00;;;23.30
38114;BMP180;23926;53.222;6.354;2023-07-29T00:40:19;100526.00;;;23.30
38114;BMP180;23926;53.222;6.354;2023-07-29T00:42:46;100525.00;;;23.30
38114;BMP180;23926;53.222;6.354;2023-07-29T00:45:12;100529.00;;;23.30
38114;BMP180;23926;53.222;6.354;2023-07-29T00:47:38;100526.00;;;23.30
38114;BMP180;23926;53.222;6.354;2023-07-29T00:50:05;100517.00;;;23.30
38114;BMP180;23926;53.222;6.354;2023-07-29T00:52:31;100520.00;;;23.30
38114;BMP180;23926;53.222;6.354;2023-07-29T00:54:57;100525.00;;;23.30
38114;BMP180;23926;53.222;6.354;2023-07-29T00:57:23;100508.00;;;23.20
38114;BMP180;23926;53.222;6.354;2023-07-29T00:59:50;100512.00;;;23.20
38114;BMP180;23926;53.222;6.354;2023-07-29T01:02:16;100515.00;;;23.20
38114;BMP180;23926;53.222;6.354;2023-07-29T01:04:42;100509.00;;;23.20
38114;BMP180;23926;53.222;6.354;2023-07-29T01:10:01;100514.00;;;23.20
38114;BMP180;23926;53.222;6.354;2023-07-29T01:15:16;100505.00;;;23.20
38114;BMP180;23926;53.222;6.354;2023-07-29T01:17:52;100504.00;;;23.20
38114;BMP180;23926;53.222;6.354;2023-07-29T01:20:19;100508.00;;;23.10
38114;BMP180;23926;53.222;6.354;2023-07-29T01:22:46;100499.00;;;23.10
38114;BMP180;23926;53.222;6.354;2023-07-29T01:25:13;100502.00;;;23.10
38114;BMP180;23926;53.222;6.354;2023-07-29T01:27:39;100491.00;;;23.00
38114;BMP180;23926;53.222;6.354;2023-07-29T01:30:05;100488.00;;;22.90
38114;BMP180;23926;53.222;6.354;2023-07-29T01:32:40;100491.00;;;22.80
38114;BMP180;23926;53.222;6.354;2023-07-29T01:37:35;100484.00;;;22.70
38114;BMP180;23926;53.222;6.354;2023-07-29T01:40:03;100474.00;;;22.60
38114;BMP180;23926;53.222;6.354;2023-07-29T01:42:30;100478.00;;;22.50
38114;BMP180;23926;53.222;6.354;2023-07-29T01:44:56;100481.00;;;22.40
38114;BMP180;23926;53.222;6.354;2023-07-29T01:47:22;100486.00;;;22.40
38114;BMP180;23926;53.222;6.354;2023-07-29T01:49:48;100491.00;;;22.30
38114;BMP180;23926;53.222;6.354;2023-07-29T01:52:13;100482.00;;;22.30
38114;BMP180;23926;53.222;6.354;2023-07-29T01:54:38;100489.00;;;22.30
38114;BMP180;23926;53.222;6.354;2023-07-29T01:57:04;100486.00;;;22.20
38114;BMP180;23926;53.222;6.354;2023-07-29T01:59:29;100484.00;;;22.20
38114;BMP180;23926;53.222;6.354;2023-07-29T02:01:55;100491.00;;;22.20
38114;BMP180;23926;53.222;6.354;2023-07-29T02:04:20;100482.00;;;22.20
38114;BMP180;23926;53.222;6.354;2023-07-29T02:06:46;100474.00;;;22.10
38114;BMP180;23926;53.222;6.354;2023-07-29T02:09:11;100470.00;;;22.10
38114;BMP180;23926;53.222;6.354;2023-07-29T02:11:36;100474.00;;;22.00
38114;BMP180;23926;53.222;6.354;2023-07-29T02:14:02;100475.00;;;22.00
38114;BMP180;23926;53.222;6.354;2023-07-29T02:16:28;100475.00;;;22.00
38114;BMP180;23926;53.222;6.354;2023-07-29T02:18:54;100472.00;;;22.00
38114;BMP180;23926;53.222;6.354;2023-07-29T02:21:19;100467.00;;;22.00
38114;BMP180;23926;53.222;6.354;2023-07-29T02:23:45;100470.00;;;22.00
38114;BMP180;23926;53.222;6.354;2023-07-29T02:26:10;100458.00;;;22.00
38114;BMP180;23926;53.222;6.354;2023-07-29T02:28:36;100464.00;;;21.90
38114;BMP180;23926;53.222;6.354;2023-07-29T02:31:15;100472.00;;;21.90
38114;BMP180;23926;53.222;6.354;2023-07-29T02:33:42;100460.00;;;21.80
38114;BMP180;23926;53.222;6.354;2023-07-29T02:36:07;100478.00;;;21.80
38114;BMP180;23926;53.222;6.354;2023-07-29T02:38:33;100468.00;;;21.80
38114;BMP180;23926;53.222;6.354;2023-07-29T02:40:58;100464.00;;;21.70
38114;BMP180;23926;53.222;6.354;2023-07-29T02:43:24;100460.00;;;21.70
38114;BMP180;23926;53.222;6.354;2023-07-29T02:45:49;100464.00;;;21.70
38114;BMP180;23926;53.222;6.354;2023-07-29T02:48:15;100455.00;;;21.70
38114;BMP180;23926;53.222;6.354;2023-07-29T02:50:40;100461.00;;;21.70
38114;BMP180;23926;53.222;6.354;2023-07-29T02:53:06;100455.00;;;21.70
38114;BMP180;23926;53.222;6.354;2023-07-29T02:55:31;100444.00;;;21.60
38114;BMP180;23926;53.222;6.354;2023-07-29T02:57:57;100446.00;;;21.60
38114;BMP180;23926;53.222;6.354;2023-07-29T03:00:22;100455.00;;;21.60
38114;BMP180;23926;53.222;6.354;2023-07-29T03:02:47;100451.00;;;21.50
38114;BMP180;23926;53.222;6.354;2023-07-29T03:05:13;100457.00;;;21.50
38114;BMP180;23926;53.222;6.354;2023-07-29T03:07:38;100451.00;;;21.50
38114;BMP180;23926;53.222;6.354;2023-07-29T03:10:04;100447.00;;;21.40
38114;BMP180;23926;53.222;6.354;2023-07-29T03:12:30;100442.00;;;21.30
38114;BMP180;23926;53.222;6.354;2023-07-29T03:14:56;100444.00;;;21.30
38114;BMP180;23926;53.222;6.354;2023-07-29T03:17:21;100442.00;;;21.20
38114;BMP180;23926;53.222;6.354;2023-07-29T03:19:47;100442.00;;;21.20
38114;BMP180;23926;53.222;6.354;2023-07-29T03:22:12;100443.00;;;21.20
38114;BMP180;23926;53.222;6.354;2023-07-29T03:24:38;100439.00;;;21.20
38114;BMP180;23926;53.222;6.354;2023-07-29T03:27:03;100436.00;;;21.20
38114;BMP180;23926;53.222;6.354;2023-07-29T03:29:29;100436.00;;;21.10
38114;BMP180;23926;53.222;6.354;2023-07-29T03:31:54;100437.00;;;21.10
38114;BMP180;23926;53.222;6.354;2023-07-29T03:34:20;100436.00;;;21.10
38114;BMP180;23926;53.222;6.354;2023-07-29T03:36:46;100436.00;;;21.10
38114;BMP180;23926;53.222;6.354;2023-07-29T03:39:13;100436.00;;;21.00
38114;BMP180;23926;53.222;6.354;2023-07-29T03:41:39;100427.00;;;21.00
38114;BMP180;23926;53.222;6.354;2023-07-29T03:44:04;100431.00;;;20.90
38114;BMP180;23926;53.222;6.354;2023-07-29T03:46:31;100424.00;;;20.90
38114;BMP180;23926;53.222;6.354;2023-07-29T03:48:56;100426.00;;;20.90
38114;BMP180;23926;53.222;6.354;2023-07-29T03:51:22;100426.00;;;20.90
38114;BMP180;23926;53.222;6.354;2023-07-29T03:53:49;100429.00;;;20.80
38114;BMP180;23926;53.222;6.354;2023-07-29T03:56:15;100423.00;;;20.80
38114;BMP180;23926;53.222;6.354;2023-07-29T03:58:40;100418.00;;;20.90
38114;BMP180;23926;53.222;6.354;2023-07-29T04:01:06;100424.00;;;20.90
38114;BMP180;23926;53.222;6.354;2023-07-29T04:03:33;100421.00;;;20.90
38114;BMP180;23926;53.222;6.354;2023-07-29T04:05:59;100418.00;;;20.90
38114;BMP180;23926;53.222;6.354;2023-07-29T04:08:24;100411.00;;;21.00
38114;BMP180;23926;53.222;6.354;2023-07-29T04:10:50;100405.00;;;21.00
38114;BMP180;23926;53.222;6.354;2023-07-29T04:13:15;100407.00;;;21.10
38114;BMP180;23926;53.222;6.354;2023-07-29T04:15:41;100414.00;;;21.10
38114;BMP180;23926;53.222;6.354;2023-07-29T04:18:06;100426.00;;;21.10
38114;BMP180;23926;53.222;6.354;2023-07-29T04:20:31;100419.00;;;21.20
38114;BMP180;23926;53.222;6.354;2023-07-29T04:22:58;100424.00;;;21.30
38114;BMP180;23926;53.222;6.354;2023-07-29T04:25:24;100411.00;;;21.30
38114;BMP180;23926;53.222;6.354;2023-07-29T04:27:49;100415.00;;;21.30
38114;BMP180;23926;53.222;6.354;2023-07-29T04:30:15;100410.00;;;21.30
38114;BMP180;23926;53.222;6.354;2023-07-29T04:32:40;100406.00;;;21.40
38114;BMP180;23926;53.222;6.354;2023-07-29T04:35:08;100410.00;;;21.40
38114;BMP180;23926;53.222;6.354;2023-07-29T04:37:34;100420.00;;;21.50
38114;BMP180;23926;53.222;6.354;2023-07-29T04:39:59;100404.00;;;21.50
38114;BMP180;23926;53.222;6.354;2023-07-29T04:42:25;100410.00;;;21.60
38114;BMP180;23926;53.222;6.354;2023-07-29T04:44:50;100411.00;;;21.60
38114;BMP180;23926;53.222;6.354;2023-07-29T04:47:16;100415.00;;;21.70
38114;BMP180;23926;53.222;6.354;2023-07-29T04:49:42;100409.00;;;21.60
38114;BMP180;23926;53.222;6.354;2023-07-29T04:52:07;100406.00;;;21.60
38114;BMP180;23926;53.222;6.354;2023-07-29T04:54:33;100416.00;;;21.70
38114;BMP180;23926;53.222;6.354;2023-07-29T04:56:58;100398.00;;;21.70
38114;BMP180;23926;53.222;6.354;2023-07-29T04:59:23;100408.00;;;21.60
38114;BMP180;23926;53.222;6.354;2023-07-29T05:01:49;100405.00;;;21.70
38114;BMP180;23926;53.222;6.354;2023-07-29T05:04:14;100417.00;;;21.70
38114;BMP180;23926;53.222;6.354;2023-07-29T05:06:40;100412.00;;;21.70
38114;BMP180;23926;53.222;6.354;2023-07-29T05:09:16;100415.00;;;21.70
38114;BMP180;23926;53.222;6.354;2023-07-29T05:11:43;100413.00;;;21.60
38114;BMP180;23926;53.222;6.354;2023-07-29T05:14:13;100408.00;;;21.60
38114;BMP180;23926;53.222;6.354;2023-07-29T05:16:38;100395.00;;;21.60
38114;BMP180;23926;53.222;6.354;2023-07-29T05:19:04;100391.00;;;21.70
38114;BMP180;23926;53.222;6.354;2023-07-29T05:21:29;100396.00;;;21.80
38114;BMP180;23926;53.222;6.354;2023-07-29T05:23:55;100395.00;;;21.70
38114;BMP180;23926;53.222;6.354;2023-07-29T05:26:22;100390.00;;;21.70
38114;BMP180;23926;53.222;6.354;2023-07-29T05:28:47;100406.00;;;21.80
38114;BMP180;23926;53.222;6.354;2023-07-29T05:31:13;100403.00;;;21.90
38114;BMP180;23926;53.222;6.354;2023-07-29T05:33:38;100406.00;;;21.90
38114;BMP180;23926;53.222;6.354;2023-07-29T05:36:04;100403.00;;;21.90
38114;BMP180;23926;53.222;6.354;2023-07-29T05:38:30;100415.00;;;22.00
38114;BMP180;23926;53.222;6.354;2023-07-29T05:40:55;100407.00;;;21.90
38114;BMP180;23926;53.222;6.354;2023-07-29T05:43:21;100408.00;;;21.90
38114;BMP180;23926;53.222;6.354;2023-07-29T05:45:46;100411.00;;;22.00
38114;BMP180;23926;53.222;6.354;2023-07-29T05:48:12;100409.00;;;22.00
38114;BMP180;23926;53.222;6.354;2023-07-29T05:50:37;100415.00;;;22.00
38114;BMP180;23926;53.222;6.354;2023-07-29T05:53:03;100422.00;;;22.00
38114;BMP180;23926;53.222;6.354;2023-07-29T05:55:28;100430.00;;;22.00
38114;BMP180;23926;53.222;6.354;2023-07-29T05:57:54;100434.00;;;22.00
38114;BMP180;23926;53.222;6.354;2023-07-29T06:00:20;100440.00;;;22.10
38114;BMP180;23926;53.222;6.354;2023-07-29T06:02:46;100447.00;;;22.10
38114;BMP180;23926;53.222;6.354;2023-07-29T06:05:11;100451.00;;;22.20
38114;BMP180;23926;53.222;6.354;2023-07-29T06:07:37;100447.00;;;22.30
38114;BMP180;23926;53.222;6.354;2023-07-29T06:10:03;100456.00;;;22.30
38114;BMP180;23926;53.222;6.354;2023-07-29T06:12:28;100446.00;;;22.30
38114;BMP180;23926;53.222;6.354;2023-07-29T06:14:54;100449.00;;;22.30
38114;BMP180;23926;53.222;6.354;2023-07-29T06:17:19;100443.00;;;22.40
38114;BMP180;23926;53.222;6.354;2023-07-29T06:19:44;100442.00;;;22.40
38114;BMP180;23926;53.222;6.354;2023-07-29T06:22:10;100444.00;;;22.60
38114;BMP180;23926;53.222;6.354;2023-07-29T06:24:35;100450.00;;;22.60
38114;BMP180;23926;53.222;6.354;2023-07-29T06:27:01;100446.00;;;22.70
38114;BMP180;23926;53.222;6.354;2023-07-29T06:29:27;100446.00;;;22.80
38114;BMP180;23926;53.222;6.354;2023-07-29T06:31:52;100434.00;;;22.90
38114;BMP180;23926;53.222;6.354;2023-07-29T06:34:18;100439.00;;;23.00
38114;BMP180;23926;53.222;6.354;2023-07-29T06:36:44;100428.00;;;23.10
38114;BMP180;23926;53.222;6.354;2023-07-29T06:39:09;100427.00;;;23.10
38114;BMP180;23926;53.222;6.354;2023-07-29T06:41:35;100422.00;;;23.10
38114;BMP180;23926;53.222;6.354;2023-07-29T06:44:00;100429.00;;;23.00
38114;BMP180;23926;53.222;6.354;2023-07-29T06:46:26;100430.00;;;23.00
38114;BMP180;23926;53.222;6.354;2023-07-29T06:48:51;100438.00;;;23.10
38114;BMP180;23926;53.222;6.354;2023-07-29T06:51:17;100430.00;;;23.10
38114;BMP180;23926;53.222;6.354;2023-07-29T06:53:42;100441.00;;;23.10
38114;BMP180;23926;53.222;6.354;2023-07-29T06:56:08;100444.00;;;23.20
38114;BMP180;23926;53.222;6.354;2023-07-29T06:58:34;100441.00;;;23.30
38114;BMP180;23926;53.222;6.354;2023-07-29T07:00:59;100443.00;;;23.40
38114;BMP180;23926;53.222;6.354;2023-07-29T07:03:24;100447.00;;;23.50
38114;BMP180;23926;53.222;6.354;2023-07-29T07:05:50;100441.00;;;23.50
38114;BMP180;23926;53.222;6.354;2023-07-29T07:08:16;100434.00;;;23.50
38114;BMP180;23926;53.222;6.354;2023-07-29T07:10:41;100442.00;;;23.50
38114;BMP180;23926;53.222;6.354;2023-07-29T07:13:06;100431.00;;;23.60
38114;BMP180;23926;53.222;6.354;2023-07-29T07:15:32;100430.00;;;23.70
38114;BMP180;23926;53.222;6.354;2023-07-29T07:17:57;100429.00;;;23.70
38114;BMP180;23926;53.222;6.354;2023-07-29T07:20:23;100433.00;;;23.80
38114;BMP180;23926;53.222;6.354;2023-07-29T07:22:48;100440.00;;;23.70
38114;BMP180;23926;53.222;6.354;2023-07-29T07:25:13;100439.00;;;23.60
38114;BMP180;23926;53.222;6.354;2023-07-29T07:27:39;100443.00;;;23.60
38114;BMP180;23926;53.222;6.354;2023-07-29T07:30:05;100437.00;;;23.60
38114;BMP180;23926;53.222;6.354;2023-07-29T07:32:30;100443.00;;;23.70
38114;BMP180;23926;53.222;6.354;2023-07-29T07:34:56;100449.00;;;23.90
38114;BMP180;23926;53.222;6.354;2023-07-29T07:37:21;100443.00;;;24.00
38114;BMP180;23926;53.222;6.354;2023-07-29T07:39:47;100445.00;;;24.10
38114;BMP180;23926;53.222;6.354;2023-07-29T07:42:12;100442.00;;;24.20
38114;BMP180;23926;53.222;6.354;2023-07-29T07:44:37;100439.00;;;24.20
38114;BMP180;23926;53.222;6.354;2023-07-29T07:47:03;100441.00;;;24.30
38114;BMP180;23926;53.222;6.354;2023-07-29T07:49:28;100439.00;;;24.50
38114;BMP180;23926;53.222;6.354;2023-07-29T07:51:54;100440.00;;;24.60
38114;BMP180;23926;53.222;6.354;2023-07-29T07:54:19;100442.00;;;24.40
38114;BMP180;23926;53.222;6.354;2023-07-29T07:56:45;100443.00;;;24.50
38114;BMP180;23926;53.222;6.354;2023-07-29T07:59:10;100444.00;;;24.40
38114;BMP180;23926;53.222;6.354;2023-07-29T08:01:37;100454.00;;;24.70
38114;BMP180;23926;53.222;6.354;2023-07-29T08:04:03;100444.00;;;25.10
38114;BMP180;23926;53.222;6.354;2023-07-29T08:06:29;100468.00;;;25.10
38114;BMP180;23926;53.222;6.354;2023-07-29T08:08:55;100462.00;;;25.20
38114;BMP180;23926;53.222;6.354;2023-07-29T08:11:20;100459.00;;;25.00
38114;BMP180;23926;53.222;6.354;2023-07-29T08:13:46;100462.00;;;24.90
38114;BMP180;23926;53.222;6.354;2023-07-29T08:16:12;100456.00;;;24.90
38114;BMP180;23926;53.222;6.354;2023-07-29T08:18:37;100465.00;;;25.00
38114;BMP180;23926;53.222;6.354;2023-07-29T08:21:03;100459.00;;;24.80
38114;BMP180;23926;53.222;6.354;2023-07-29T08:23:34;100467.00;;;25.00
38114;BMP180;23926;53.222;6.354;2023-07-29T08:26:02;100470.00;;;24.90
38114;BMP180;23926;53.222;6.354;2023-07-29T08:28:31;100455.00;;;25.00
38114;BMP180;23926;53.222;6.354;2023-07-29T08:30:57;100464.00;;;24.80
38114;BMP180;23926;53.222;6.354;2023-07-29T08:33:23;100467.00;;;24.90
38114;BMP180;23926;53.222;6.354;2023-07-29T08:35:49;100463.00;;;25.10
38114;BMP180;23926;53.222;6.354;2023-07-29T08:38:14;100452.00;;;25.40
38114;BMP180;23926;53.222;6.354;2023-07-29T08:41:10;100463.00;;;25.90
38114;BMP180;23926;53.222;6.354;2023-07-29T08:43:32;100463.00;;;26.00
38114;BMP180;23926;53.222;6.354;2023-07-29T08:45:59;100466.00;;;26.10
38114;BMP180;23926;53.222;6.354;2023-07-29T08:48:45;100477.00;;;26.20
38114;BMP180;23926;53.222;6.354;2023-07-29T08:51:11;100472.00;;;26.20
38114;BMP180;23926;53.222;6.354;2023-07-29T08:53:38;100475.00;;;26.00
38114;BMP180;23926;53.222;6.354;2023-07-29T08:56:04;100469.00;;;25.60
38114;BMP180;23926;53.222;6.354;2023-07-29T08:58:31;100452.00;;;25.30
38114;BMP180;23926;53.222;6.354;2023-07-29T09:00:56;100466.00;;;25.10
38114;BMP180;23926;53.222;6.354;2023-07-29T09:03:22;100469.00;;;25.10
38114;BMP180;23926;53.222;6.354;2023-07-29T09:05:47;100471.00;;;25.10
38114;BMP180;23926;53.222;6.354;2023-07-29T09:08:13;100466.00;;;25.20
38114;BMP180;23926;53.222;6.354;2023-07-29T09:10:39;100464.00;;;25.60
38114;BMP180;23926;53.222;6.354;2023-07-29T09:13:05;100465.00;;;26.10
38114;BMP180;23926;53.222;6.354;2023-07-29T09:15:33;100461.00;;;26.10
38114;BMP180;23926;53.222;6.354;2023-07-29T09:17:59;100476.00;;;26.30
38114;BMP180;23926;53.222;6.354;2023-07-29T09:20:27;100467.00;;;26.20
38114;BMP180;23926;53.222;6.354;2023-07-29T09:22:54;100477.00;;;26.30
38114;BMP180;23926;53.222;6.354;2023-07-29T09:25:25;100476.00;;;26.30
38114;BMP180;23926;53.222;6.354;2023-07-29T09:27:50;100476.00;;;26.10
38114;BMP180;23926;53.222;6.354;2023-07-29T09:30:16;100468.00;;;25.80
38114;BMP180;23926;53.222;6.354;2023-07-29T09:32:42;100476.00;;;26.00
38114;BMP180;23926;53.222;6.354;2023-07-29T09:35:11;100480.00;;;25.80
38114;BMP180;23926;53.222;6.354;2023-07-29T09:37:38;100476.00;;;25.80
38114;BMP180;23926;53.222;6.354;2023-07-29T09:40:04;100476.00;;;26.10
38114;BMP180;23926;53.222;6.354;2023-07-29T09:42:30;100476.00;;;26.40
38114;BMP180;23926;53.222;6.354;2023-07-29T09:44:55;100467.00;;;26.60
38114;BMP180;23926;53.222;6.354;2023-07-29T09:47:22;100476.00;;;27.00
38114;BMP180;23926;53.222;6.354;2023-07-29T09:49:48;100477.00;;;27.00
38114;BMP180;23926;53.222;6.354;2023-07-29T09:52:20;100476.00;;;27.10
38114;BMP180;23926;53.222;6.354;2023-07-29T09:54:47;100478.00;;;27.50
38114;BMP180;23926;53.222;6.354;2023-07-29T09:57:16;100474.00;;;27.40
38114;BMP180;23926;53.222;6.354;2023-07-29T09:59:43;100470.00;;;27.00
38114;BMP180;23926;53.222;6.354;2023-07-29T10:02:13;100473.00;;;26.80
38114;BMP180;23926;53.222;6.354;2023-07-29T10:04:43;100465.00;;;26.70
38114;BMP180;23926;53.222;6.354;2023-07-29T10:07:10;100482.00;;;26.80
38114;BMP180;23926;53.222;6.354;2023-07-29T10:09:37;100467.00;;;27.00
38114;BMP180;23926;53.222;6.354;2023-07-29T10:12:05;100476.00;;;27.10
38114;BMP180;23926;53.222;6.354;2023-07-29T10:14:31;100474.00;;;27.30
38114;BMP180;23926;53.222;6.354;2023-07-29T10:16:57;100472.00;;;27.60
38114;BMP180;23926;53.222;6.354;2023-07-29T10:19:24;100460.00;;;28.00
38114;BMP180;23926;53.222;6.354;2023-07-29T10:21:51;100482.00;;;27.90
38114;BMP180;23926;53.222;6.354;2023-07-29T10:24:19;100475.00;;;27.90
38114;BMP180;23926;53.222;6.354;2023-07-29T10:26:49;100465.00;;;27.80
38114;BMP180;23926;53.222;6.354;2023-07-29T10:29:19;100472.00;;;28.00
38114;BMP180;23926;53.222;6.354;2023-07-29T10:31:46;100472.00;;;28.10
38114;BMP180;23926;53.222;6.354;2023-07-29T10:34:13;100466.00;;;28.00
38114;BMP180;23926;53.222;6.354;2023-07-29T10:36:39;100476.00;;;27.90
38114;BMP180;23926;53.222;6.354;2023-07-29T10:39:07;100469.00;;;27.50
38114;BMP180;23926;53.222;6.354;2023-07-29T10:42:02;100471.00;;;26.90
38114;BMP180;23926;53.222;6.354;2023-07-29T10:47:29;100462.00;;;26.40
38114;BMP180;23926;53.222;6.354;2023-07-29T10:49:59;100472.00;;;26.30
38114;BMP180;23926;53.222;6.354;2023-07-29T10:52:40;100457.00;;;26.20
38114;BMP180;23926;53.222;6.354;2023-07-29T10:57:50;100474.00;;;25.60
38114;BMP180;23926;53.222;6.354;2023-07-29T11:00:18;100456.00;;;25.50
38114;BMP180;23926;53.222;6.354;2023-07-29T11:02:56;100473.00;;;25.20
38114;BMP180;23926;53.222;6.354;2023-07-29T11:05:24;100498.00;;;24.40
38114;BMP180;23926;53.222;6.354;2023-07-29T11:07:49;100497.00;;;23.70
38114;BMP180;23926;53.222;6.354;2023-07-29T11:10:16;100494.00;;;22.80
38114;BMP180;23926;53.222;6.354;2023-07-29T11:12:43;100489.00;;;22.40
38114;BMP180;23926;53.222;6.354;2023-07-29T11:17:59;100485.00;;;22.70
38114;BMP180;23926;53.222;6.354;2023-07-29T11:20:32;100476.00;;;23.00
38114;BMP180;23926;53.222;6.354;2023-07-29T11:23:00;100476.00;;;23.30
38114;BMP180;23926;53.222;6.354;2023-07-29T11:25:27;100473.00;;;23.80
38114;BMP180;23926;53.222;6.354;2023-07-29T11:27:54;100494.00;;;24.00
38114;BMP180;23926;53.222;6.354;2023-07-29T11:30:20;100484.00;;;24.00
38114;BMP180;23926;53.222;6.354;2023-07-29T11:32:46;100477.00;;;24.10
38114;BMP180;23926;53.222;6.354;2023-07-29T11:35:14;100484.00;;;24.40
38114;BMP180;23926;53.222;6.354;2023-07-29T11:37:41;100491.00;;;24.60
38114;BMP180;23926;53.222;6.354;2023-07-29T11:40:07;100487.00;;;24.70
38114;BMP180;23926;53.222;6.354;2023-07-29T11:42:36;100495.00;;;24.80
38114;BMP180;23926;53.222;6.354;2023-07-29T11:45:02;100495.00;;;24.60
38114;BMP180;23926;53.222;6.354;2023-07-29T11:47:29;100503.00;;;23.90
38114;BMP180;23926;53.222;6.354;2023-07-29T11:49:58;100493.00;;;23.90
38114;BMP180;23926;53.222;6.354;2023-07-29T11:52:25;100490.00;;;24.10
38114;BMP180;23926;53.222;6.354;2023-07-29T11:54:52;100497.00;;;24.20
38114;BMP180;23926;53.222;6.354;2023-07-29T11:57:18;100511.00;;;23.90
38114;BMP180;23926;53.222;6.354;2023-07-29T11:59:43;100509.00;;;24.00
38114;BMP180;23926;53.222;6.354;2023-07-29T12:02:15;100501.00;;;23.90
38114;BMP180;23926;53.222;6.354;2023-07-29T12:04:41;100514.00;;;23.80
38114;BMP180;23926;53.222;6.354;2023-07-29T12:07:07;100510.00;;;23.30
38114;BMP180;23926;53.222;6.354;2023-07-29T12:09:34;100502.00;;;23.00
38114;BMP180;23926;53.222;6.354;2023-07-29T12:12:00;100516.00;;;22.50
38114;BMP180;23926;53.222;6.354;2023-07-29T12:14:29;100511.00;;;22.20
38114;BMP180;23926;53.222;6.354;2023-07-29T12:16:55;100525.00;;;22.30
38114;BMP180;23926;53.222;6.354;2023-07-29T12:19:20;100523.00;;;22.60
38114;BMP180;23926;53.222;6.354;2023-07-29T12:21:48;100512.00;;;22.90
38114;BMP180;23926;53.222;6.354;2023-07-29T12:24:14;100520.00;;;23.30
38114;BMP180;23926;53.222;6.354;2023-07-29T12:26:40;100501.00;;;23.50
38114;BMP180;23926;53.222;6.354;2023-07-29T12:29:14;100505.00;;;23.80
38114;BMP180;23926;53.222;6.354;2023-07-29T12:31:39;100508.00;;;23.70
38114;BMP180;23926;53.222;6.354;2023-07-29T12:34:05;100511.00;;;24.10
38114;BMP180;23926;53.222;6.354;2023-07-29T12:36:47;100517.00;;;23.60
38114;BMP180;23926;53.222;6.354;2023-07-29T12:39:33;100502.00;;;23.70
38114;BMP180;23926;53.222;6.354;2023-07-29T12:42:00;100513.00;;;24.00
38114;BMP180;23926;53.222;6.354;2023-07-29T12:44:31;100503.00;;;24.20
38114;BMP180;23926;53.222;6.354;2023-07-29T12:46:56;100516.00;;;24.00
38114;BMP180;23926;53.222;6.354;2023-07-29T12:49:22;100507.00;;;24.00
38114;BMP180;23926;53.222;6.354;2023-07-29T12:51:48;100513.00;;;24.00
38114;BMP180;23926;53.222;6.354;2023-07-29T12:54:13;100510.00;;;23.90
38114;BMP180;23926;53.222;6.354;2023-07-29T12:56:39;100508.00;;;24.20
38114;BMP180;23926;53.222;6.354;2023-07-29T12:59:04;100505.00;;;23.80
38114;BMP180;23926;53.222;6.354;2023-07-29T13:01:30;100505.00;;;23.70
38114;BMP180;23926;53.222;6.354;2023-07-29T13:03:56;100512.00;;;23.90
38114;BMP180;23926;53.222;6.354;2023-07-29T13:06:21;100518.00;;;24.50
38114;BMP180;23926;53.222;6.354;2023-07-29T13:08:47;100517.00;;;24.60
38114;BMP180;23926;53.222;6.354;2023-07-29T13:11:14;100522.00;;;24.70
38114;BMP180;23926;53.222;6.354;2023-07-29T13:13:40;100512.00;;;25.00
38114;BMP180;23926;53.222;6.354;2023-07-29T13:16:05;100515.00;;;25.40
38114;BMP180;23926;53.222;6.354;2023-07-29T13:18:32;100520.00;;;24.90
38114;BMP180;23926;53.222;6.354;2023-07-29T13:20:57;100525.00;;;24.80
38114;BMP180;23926;53.222;6.354;2023-07-29T13:23:24;100530.00;;;24.60
38114;BMP180;23926;53.222;6.354;2023-07-29T13:25:49;100512.00;;;24.40
38114;BMP180;23926;53.222;6.354;2023-07-29T13:28:15;100516.00;;;24.50
38114;BMP180;23926;53.222;6.354;2023-07-29T13:30:41;100521.00;;;24.60
38114;BMP180;23926;53.222;6.354;2023-07-29T13:33:07;100511.00;;;24.60
38114;BMP180;23926;53.222;6.354;2023-07-29T13:35:32;100507.00;;;24.80
38114;BMP180;23926;53.222;6.354;2023-07-29T13:37:58;100508.00;;;25.10
38114;BMP180;23926;53.222;6.354;2023-07-29T13:40:23;100498.00;;;25.30
38114;BMP180;23926;53.222;6.354;2023-07-29T13:42:49;100504.00;;;25.00
38114;BMP180;23926;53.222;6.354;2023-07-29T13:45:14;100512.00;;;24.90
38114;BMP180;23926;53.222;6.354;2023-07-29T13:47:40;100506.00;;;25.10
38114;BMP180;23926;53.222;6.354;2023-07-29T13:50:06;100520.00;;;25.30
38114;BMP180;23926;53.222;6.354;2023-07-29T13:52:33;100520.00;;;25.30
38114;BMP180;23926;53.222;6.354;2023-07-29T13:54:58;100521.00;;;25.30
38114;BMP180;23926;53.222;6.354;2023-07-29T13:57:24;100525.00;;;25.40
38114;BMP180;23926;53.222;6.354;2023-07-29T13:59:49;100532.00;;;25.60
38114;BMP180;23926;53.222;6.354;2023-07-29T14:02:15;100515.00;;;25.90
38114;BMP180;23926;53.222;6.354;2023-07-29T14:04:40;100522.00;;;25.90
38114;BMP180;23926;53.222;6.354;2023-07-29T14:07:06;100528.00;;;25.70
38114;BMP180;23926;53.222;6.354;2023-07-29T14:09:31;100531.00;;;25.40